Time;durP1;ratioP1;P1;durP2;ratioP2;P2;SDS_P1;SDS_P2;PMS_P1;PMS_P2;Temp;Humidity;BMP_temperature;BMP_pressure;BME280_temperature;BME280_humidity;BME280_pressure;Samples;Min_cycle;Max_cycle;Signal;HPM_P1;HPM_P2
2022/04/07 00:00:25;;;;;;;7.70;5.45;;;;;;;6.93;72.40;100528.38;4978252;28;20129;-87
2022/04/07 00:02:52;;;;;;;9.10;6.50;;;;;;;6.96;73.24;100536.13;4977233;28;20099;-90
2022/04/07 00:05:18;;;;;;;9.32;6.38;;;;;;;6.94;72.90;100525.56;4968969;28;20061;-88
2022/04/07 00:07:43;;;;;;;9.02;6.60;;;;;;;6.95;73.02;100537.97;4957769;28;20030;-88
2022/04/07 00:10:09;;;;;;;9.77;6.57;;;;;;;6.93;73.01;100534.56;4973515;28;20069;-89
2022/04/07 00:12:35;;;;;;;9.82;7.00;;;;;;;6.96;72.93;100530.78;4947136;28;20034;-87
2022/04/07 00:15:01;;;;;;;7.95;5.85;;;;;;;6.88;72.86;100520.78;4961586;28;20093;-89
2022/04/07 00:17:29;;;;;;;9.67;6.57;;;;;;;6.89;72.78;100519.78;4966836;28;20042;-88
2022/04/07 00:19:56;;;;;;;9.10;5.88;;;;;;;6.92;72.38;100505.31;4960631;28;20308;-87
2022/04/07 00:22:21;;;;;;;10.60;6.57;;;;;;;6.71;73.30;100494.75;4956514;28;20034;-87
2022/04/07 00:24:47;;;;;;;8.98;6.30;;;;;;;6.69;73.20;100478.03;4968001;28;20301;-88
2022/04/07 00:27:12;;;;;;;7.68;5.88;;;;;;;6.62;72.29;100463.53;4970496;28;20073;-89
2022/04/07 00:29:39;;;;;;;8.38;6.18;;;;;;;6.76;72.42;100471.13;4955188;28;20066;-88
2022/04/07 00:32:07;;;;;;;10.52;6.15;;;;;;;6.72;72.09;100459.91;4972419;28;20034;-87
2022/04/07 00:34:33;;;;;;;8.02;5.35;;;;;;;6.81;71.97;100468.88;4941588;28;20049;-89
2022/04/07 00:36:58;;;;;;;8.82;5.93;;;;;;;6.71;72.24;100460.88;4963533;28;20085;-88
2022/04/07 00:39:25;;;;;;;8.00;5.60;;;;;;;6.83;71.85;100453.53;4963416;28;20285;-90
2022/04/07 00:41:52;;;;;;;9.18;5.82;;;;;;;6.73;72.05;100458.06;4992984;28;20046;-88
2022/04/07 00:44:22;;;;;;;9.23;5.40;;;;;;;6.70;71.10;100442.31;4989693;28;20100;-89
2022/04/07 00:46:49;;;;;;;7.72;5.30;;;;;;;6.62;71.81;100450.19;4963214;28;20121;-88
2022/04/07 00:49:14;;;;;;;8.93;5.88;;;;;;;6.66;71.43;100443.56;4971491;28;20034;-87
2022/04/07 00:51:40;;;;;;;7.18;5.65;;;;;;;6.68;71.84;100436.28;4971685;28;20037;-88
2022/04/07 00:54:08;;;;;;;10.07;6.07;;;;;;;6.65;72.29;100433.84;4956731;28;20049;-88
2022/04/07 00:56:36;;;;;;;10.23;5.60;;;;;;;6.71;71.77;100422.63;4989613;28;20277;-87
2022/04/07 00:59:07;;;;;;;6.70;4.80;;;;;;;6.67;72.31;100415.88;4966217;28;20102;-89
2022/04/07 01:01:34;;;;;;;8.20;5.55;;;;;;;6.65;71.89;100410.69;4966852;28;20036;-89
2022/04/07 01:04:02;;;;;;;10.88;4.90;;;;;;;6.58;70.11;100417.56;4980795;28;20137;-86
2022/04/07 01:06:29;;;;;;;6.60;4.70;;;;;;;6.74;70.04;100416.97;4957710;28;20089;-89
2022/04/07 01:08:55;;;;;;;8.73;5.13;;;;;;;6.58;70.47;100400.69;4962818;28;20547;-86
2022/04/07 01:11:22;;;;;;;7.10;5.25;;;;;;;6.71;70.88;100410.09;4964232;28;20038;-88
2022/04/07 01:13:51;;;;;;;7.68;5.60;;;;;;;6.54;71.07;100390.28;4943641;28;20043;-89
2022/04/07 01:16:19;;;;;;;8.32;5.95;;;;;;;6.47;73.58;100375.81;4937047;28;20325;-88
2022/04/07 01:18:46;;;;;;;9.15;6.03;;;;;;;6.62;73.32;100402.09;4869550;28;1635804;-89
2022/04/07 01:21:14;;;;;;;9.45;6.03;;;;;;;6.65;74.96;100389.31;4974443;28;20070;-89
2022/04/07 01:23:42;;;;;;;10.95;6.95;;;;;;;6.53;74.80;100391.28;4960463;28;20042;-88
2022/04/07 01:26:15;;;;;;;9.82;6.55;;;;;;;6.58;75.18;100381.97;4959736;28;20042;-90
2022/04/07 01:28:51;;;;;;;10.50;7.00;;;;;;;6.44;76.29;100377.91;4975435;28;20077;-88
2022/04/07 01:31:18;;;;;;;;;;;;;;;6.63;75.07;100380.59;4950065;28;20047;-89
2022/04/07 01:33:43;;;;;;;8.85;6.03;;;;;;;6.49;75.23;100360.50;4974772;28;19918;-87
2022/04/07 01:36:09;;;;;;;8.27;5.90;;;;;;;6.48;75.72;100358.78;4942178;28;20360;-90
2022/04/07 01:38:36;;;;;;;12.27;7.07;;;;;;;6.62;76.02;100372.72;4956312;28;20798;-88
2022/04/07 01:41:02;;;;;;;11.65;7.40;;;;;;;6.54;76.55;100358.25;4993046;28;20568;-88
2022/04/07 01:43:28;;;;;;;12.47;8.00;;;;;;;6.56;76.58;100371.47;4962587;28;20066;-87
2022/04/07 01:45:53;;;;;;;12.20;7.82;;;;;;;6.36;77.29;100333.22;4971940;28;20876;-89
2022/04/07 01:48:20;;;;;;;12.45;7.88;;;;;;;6.28;77.33;100331.28;4956209;28;20487;-89
2022/04/07 01:50:48;;;;;;;13.05;7.55;;;;;;;6.50;77.66;100356.84;4944039;28;20403;-90
2022/04/07 01:53:17;;;;;;;13.88;8.02;;;;;;;6.34;77.72;100345.88;4958455;28;20477;-93
2022/04/07 01:55:43;;;;;;;12.85;8.20;;;;;;;6.47;78.11;100357.13;4957131;28;20100;-88
2022/04/07 01:58:16;;;;;;;12.43;8.43;;;;;;;6.53;77.99;100343.22;4954125;28;20046;-89
2022/04/07 02:00:43;;;;;;;14.23;8.70;;;;;;;6.55;78.36;100354.59;4962601;28;20038;-89
2022/04/07 02:03:10;;;;;;;13.40;8.25;;;;;;;6.45;78.40;100337.72;4994826;28;20045;-88
2022/04/07 02:05:37;;;;;;;13.88;8.75;;;;;;;6.46;78.27;100334.09;4961735;28;20121;-89
2022/04/07 02:08:03;;;;;;;12.88;8.25;;;;;;;6.56;78.37;100350.09;4946326;28;20463;-90
2022/04/07 02:10:30;;;;;;;14.10;8.40;;;;;;;6.58;78.25;100352.59;4959025;28;20041;-89
2022/04/07 02:12:59;;;;;;;15.32;9.00;;;;;;;6.50;78.55;100346.16;4959907;28;20053;-88
2022/04/07 02:15:28;;;;;;;14.00;9.35;;;;;;;6.53;78.42;100355.69;4974076;28;20427;-88
2022/04/07 02:17:55;;;;;;;12.75;9.13;;;;;;;6.53;78.56;100348.56;4959542;28;20050;-88
2022/04/07 02:20:22;;;;;;;15.57;9.20;;;;;;;6.44;78.37;100333.38;4975446;28;20096;-88
2022/04/07 02:22:50;;;;;;;14.80;9.68;;;;;;;6.55;78.08;100341.25;4973031;28;20051;-89
2022/04/07 02:25:20;;;;;;;13.27;9.13;;;;;;;6.44;79.08;100351.22;4970181;28;20046;-90
2022/04/07 02:27:47;;;;;;;15.05;9.20;;;;;;;6.47;79.21;100346.44;4958950;28;20092;-90
2022/04/07 02:30:15;;;;;;;16.75;9.43;;;;;;;6.50;79.11;100350.66;4959469;28;20526;-91
2022/04/07 02:32:44;;;;;;;14.05;8.75;;;;;;;6.52;78.41;100349.53;4950117;28;20092;-91
2022/04/07 02:35:16;;;;;;;14.57;9.20;;;;;;;6.54;78.86;100347.56;4975242;28;20498;-91
2022/04/07 02:37:43;;;;;;;14.57;9.55;;;;;;;6.37;79.30;100334.94;4971193;28;20499;-90
2022/04/07 02:40:13;;;;;;;17.92;10.23;;;;;;;6.27;80.39;100328.75;4960018;28;20050;-90
2022/04/07 02:42:42;;;;;;;15.70;9.43;;;;;;;6.34;80.41;100344.06;4959613;28;20042;-89
2022/04/07 02:45:11;;;;;;;18.30;9.40;;;;;;;6.41;80.67;100349.66;4974491;28;20051;-91
2022/04/07 02:47:40;;;;;;;12.52;8.95;;;;;;;6.40;80.25;100334.63;4993115;28;20117;-89
2022/04/07 02:50:06;;;;;;;13.73;8.75;;;;;;;6.42;80.48;100338.03;4933547;28;20121;-89
2022/04/07 02:52:35;;;;;;;17.75;9.00;;;;;;;6.38;81.53;100336.59;4960153;28;20503;-91
2022/04/07 02:55:01;;;;;;;14.07;8.77;;;;;;;6.55;81.00;100338.56;4992714;28;20117;-90
2022/04/07 02:57:31;;;;;;;17.23;8.05;;;;;;;6.37;81.33;100307.38;4939676;28;20626;-90
2022/04/07 02:59:58;;;;;;;12.77;8.65;;;;;;;6.42;80.88;100322.00;4950482;28;20038;-90
2022/04/07 03:02:26;;;;;;;15.25;9.45;;;;;;;6.30;81.15;100296.44;4950893;28;20061;-88
2022/04/07 03:04:54;;;;;;;16.05;9.57;;;;;;;6.43;80.93;100318.31;4941226;28;20088;-89
2022/04/07 03:07:21;;;;;;;14.93;9.13;;;;;;;6.30;81.26;100307.13;4992941;28;20026;-89
2022/04/07 03:09:46;;;;;;;15.98;9.10;;;;;;;6.20;81.48;100285.75;4958701;28;20068;-89
2022/04/07 03:12:15;;;;;;;12.13;6.63;;;;;;;6.32;80.26;100294.44;4957381;28;20216;-88
2022/04/07 03:14:41;;;;;;;13.57;8.57;;;;;;;6.27;80.36;100286.84;4958967;28;20038;-89
2022/04/07 03:17:13;;;;;;;14.25;8.27;;;;;;;6.28;80.90;100282.38;4944921;28;20051;-89
2022/04/07 03:19:39;;;;;;;14.05;8.70;;;;;;;6.28;80.81;100277.88;4938475;28;20915;-89
2022/04/07 03:22:09;;;;;;;15.60;8.10;;;;;;;6.31;80.98;100279.41;4932173;28;20542;-88
2022/04/07 03:24:35;;;;;;;16.48;7.50;;;;;;;6.27;81.31;100286.03;4924853;28;20124;-88
2022/04/07 03:27:04;;;;;;;14.53;7.77;;;;;;;6.12;82.01;100273.13;4937585;29;20495;-87
2022/04/07 03:29:31;;;;;;;16.48;8.25;;;;;;;6.10;82.52;100269.75;4958455;28;20345;-88
2022/04/07 03:31:57;;;;;;;17.13;8.05;;;;;;;6.01;82.62;100259.91;4957511;28;20047;-87
2022/04/07 03:34:23;;;;;;;15.00;7.47;;;;;;;5.87;82.53;100253.13;4963938;28;20035;-89
2022/04/07 03:36:50;;;;;;;15.65;8.18;;;;;;;6.09;82.07;100275.25;4941847;28;20050;-89
2022/04/07 03:39:18;;;;;;;13.98;8.35;;;;;;;6.00;81.93;100257.41;4972887;28;20051;-89
2022/04/07 03:41:44;;;;;;;13.65;7.88;;;;;;;5.99;81.66;100251.19;4927299;29;20043;-89
2022/04/07 03:44:11;;;;;;;13.90;8.27;;;;;;;6.02;82.27;100261.63;4906381;28;20031;-89
2022/04/07 03:46:37;;;;;;;13.07;8.20;;;;;;;5.99;81.84;100245.88;4972260;28;20051;-90
2022/04/07 03:49:04;;;;;;;12.93;7.80;;;;;;;6.06;81.96;100257.69;4923563;28;20507;-90
2022/04/07 03:51:30;;;;;;;17.77;8.90;;;;;;;5.97;82.40;100247.00;4960996;28;20038;-88
2022/04/07 03:54:00;;;;;;;21.03;9.73;;;;;;;6.04;82.83;100248.97;4961943;28;20033;-88
2022/04/07 03:56:27;;;;;;;15.77;9.23;;;;;;;5.99;82.84;100229.84;4976067;28;20381;-89
2022/04/07 03:59:00;;;;;;;24.75;9.98;;;;;;;6.23;82.46;100241.94;4928624;28;20435;-86
2022/04/07 04:01:30;;;;;;;17.60;9.83;;;;;;;6.33;82.13;100230.22;4945190;28;20034;-89
2022/04/07 04:03:56;;;;;;;13.13;8.15;;;;;;;6.36;81.92;100218.41;4962276;28;20291;-89
2022/04/07 04:06:25;;;;;;;18.52;9.50;;;;;;;6.17;82.05;100183.78;4970481;28;20038;-89
2022/04/07 04:08:52;;;;;;;15.95;9.57;;;;;;;6.13;82.57;100194.75;4934320;28;20045;-86
2022/04/07 04:11:19;;;;;;;15.55;9.35;;;;;;;6.32;81.96;100190.31;4939501;28;20034;-86
2022/04/07 04:13:49;;;;;;;16.38;9.38;;;;;;;6.45;81.20;100198.84;4956384;28;20360;-96
2022/04/07 04:16:17;;;;;;;13.85;8.23;;;;;;;6.44;80.46;100178.50;4935038;28;20070;-87
2022/04/07 04:18:43;;;;;;;16.95;7.70;;;;;;;6.63;79.78;100174.06;4938846;28;20503;-86
2022/04/07 04:21:10;;;;;;;13.30;6.72;;;;;;;6.55;79.93;100146.28;4927393;28;20054;-88
2022/04/07 04:23:38;;;;;;;11.60;7.50;;;;;;;6.53;80.37;100150.91;4938853;28;20035;-87
2022/04/07 04:26:05;;;;;;;13.15;7.78;;;;;;;6.69;80.01;100162.78;4952755;28;20062;-87
2022/04/07 04:28:31;;;;;;;12.70;7.50;;;;;;;6.76;80.17;100161.19;4935080;29;20043;-88
2022/04/07 04:30:58;;;;;;;11.48;6.93;;;;;;;6.98;79.32;100155.44;4968104;28;20077;-91
2022/04/07 04:33:26;;;;;;;13.02;7.50;;;;;;;7.03;78.64;100132.78;4944471;28;20051;-88
2022/04/07 04:35:53;;;;;;;13.45;6.57;;;;;;;6.94;78.65;100113.13;4929220;28;20035;-86
2022/04/07 04:38:20;;;;;;;11.25;6.95;;;;;;;7.17;78.38;100130.41;4978660;28;20027;-87
2022/04/07 04:40:48;;;;;;;9.55;6.38;;;;;;;7.34;77.47;100136.75;4940236;29;20100;-85
2022/04/07 04:43:17;;;;;;;11.80;6.55;;;;;;;7.37;77.39;100130.25;4958086;28;20138;-90
2022/04/07 04:45:44;;;;;;;12.50;7.05;;;;;;;7.52;77.09;100138.59;4922651;28;20126;-90
2022/04/07 04:48:52;;;;;;;10.43;7.10;;;;;;;7.50;77.28;100146.78;4970446;28;20034;-94
2022/04/07 04:51:21;;;;;;;12.15;6.80;;;;;;;7.37;77.36;100116.88;4975928;28;20050;-86
2022/04/07 04:53:48;;;;;;;9.70;6.38;;;;;;;7.46;76.73;100126.66;4976450;28;20035;-87
2022/04/07 04:56:14;;;;;;;10.07;7.13;;;;;;;7.24;77.60;100125.31;4956719;28;20027;-87
2022/04/07 04:58:40;;;;;;;8.93;6.03;;;;;;;7.32;77.52;100120.03;4957178;28;20039;-86
2022/04/07 05:01:06;;;;;;;11.75;7.25;;;;;;;7.42;77.66;100121.78;4924672;28;20038;-83
2022/04/07 05:03:31;;;;;;;11.57;6.70;;;;;;;7.37;77.99;100125.78;4925086;28;20050;-83
2022/04/07 05:05:57;;;;;;;15.80;7.22;;;;;;;7.57;77.48;100125.59;4931719;29;20044;-86
2022/04/07 05:08:22;;;;;;;13.00;6.93;;;;;;;7.88;76.41;100117.13;4953612;28;20070;-84
2022/04/07 05:10:48;;;;;;;12.53;7.10;;;;;;;7.71;76.99;100103.63;4955000;28;20031;-85
2022/04/07 05:13:14;;;;;;;16.85;7.13;;;;;;;7.72;77.06;100093.78;4922448;29;20031;-83
2022/04/07 05:15:40;;;;;;;13.70;7.68;;;;;;;7.65;78.22;100111.44;4966661;28;20042;-84
2022/04/07 05:18:06;;;;;;;13.60;7.15;;;;;;;7.59;78.77;100108.41;4986222;28;20140;-86
2022/04/07 05:20:31;;;;;;;15.70;8.52;;;;;;;7.71;79.10;100108.16;4992053;28;20129;-83
2022/04/07 05:22:57;;;;;;;17.50;8.32;;;;;;;7.81;78.23;100096.34;4946102;28;20031;-84
2022/04/07 05:25:22;;;;;;;23.80;8.60;;;;;;;7.91;78.13;100106.09;4962120;28;20117;-84
2022/04/07 05:27:48;;;;;;;17.73;9.13;;;;;;;7.89;78.13;100111.63;4976524;28;20026;-84
2022/04/07 05:30:17;;;;;;;16.87;8.17;;;;;;;7.82;78.58;100118.63;4983503;28;20296;-84
2022/04/07 05:32:43;;;;;;;19.23;8.48;;;;;;;8.00;78.08;100123.91;4977667;28;20300;-84
2022/04/07 05:35:10;;;;;;;17.48;8.60;;;;;;;7.63;78.87;100141.03;4960457;28;20531;-84
2022/04/07 05:37:37;;;;;;;14.73;8.05;;;;;;;7.58;79.08;100127.28;4958336;28;20117;-84
2022/04/07 05:40:08;;;;;;;15.93;7.18;;;;;;;7.37;79.83;100109.72;4974804;28;20100;-84
2022/04/07 05:42:35;;;;;;;17.60;9.13;;;;;;;7.38;80.32;100115.91;4958107;28;20062;-87
2022/04/07 05:45:01;;;;;;;14.95;8.70;;;;;;;7.64;79.53;100115.13;4992706;28;20046;-84
2022/04/07 05:47:26;;;;;;;18.60;8.82;;;;;;;7.68;78.99;100124.50;4985678;28;20046;-83
2022/04/07 05:49:58;;;;;;;17.30;9.50;;;;;;;7.89;78.38;100134.88;4947756;28;20053;-82
2022/04/07 05:52:23;;;;;;;17.50;9.15;;;;;;;7.90;78.31;100128.53;4973791;28;20319;-84
2022/04/07 05:54:49;;;;;;;17.03;9.40;;;;;;;8.11;77.66;100129.00;4982764;28;20034;-83
2022/04/07 05:57:14;;;;;;;13.77;8.73;;;;;;;7.88;77.56;100133.19;4974266;28;20285;-83
2022/04/07 05:59:40;;;;;;;14.82;6.43;;;;;;;8.00;77.43;100139.97;4976073;28;20292;-84
2022/04/07 06:02:06;;;;;;;16.23;8.77;;;;;;;8.10;76.51;100159.47;4964175;28;20199;-85
2022/04/07 06:04:31;;;;;;;14.48;8.07;;;;;;;8.09;76.25;100155.09;4975468;28;20030;-85
2022/04/07 06:06:57;;;;;;;16.08;9.57;;;;;;;8.39;75.68;100164.47;4939957;28;20050;-83
2022/04/07 06:09:22;;;;;;;17.55;8.30;;;;;;;8.49;74.87;100159.03;4968578;28;20034;-84
2022/04/07 06:11:48;;;;;;;16.63;7.97;;;;;;;8.69;74.34;100150.78;4954978;28;20095;-84
2022/04/07 06:14:13;;;;;;;16.77;6.50;;;;;;;8.57;73.85;100156.41;4958434;28;20481;-84
2022/04/07 06:16:39;;;;;;;9.30;6.07;;;;;;;8.75;73.13;100131.34;4976619;28;20498;-82
2022/04/07 06:19:06;;;;;;;18.10;6.87;;;;;;;8.74;73.31;100137.72;4974411;28;20285;-83
2022/04/07 06:21:33;;;;;;;11.27;6.82;;;;;;;9.29;72.34;100123.78;4980013;28;20281;-82
2022/04/07 06:23:59;;;;;;;11.65;6.07;;;;;;;9.32;71.26;100104.69;4982051;28;20523;-86
2022/04/07 06:26:27;;;;;;;11.18;6.10;;;;;;;9.21;70.73;100102.31;4974467;28;20076;-86
2022/04/07 06:28:55;;;;;;;11.73;5.85;;;;;;;9.66;69.12;100071.47;5000466;28;20038;-87
2022/04/07 06:31:23;;;;;;;8.70;4.55;;;;;;;9.77;67.61;100079.16;4981730;28;20462;-89
2022/04/07 06:33:48;;;;;;;9.52;5.20;;;;;;;9.47;69.09;100067.28;4974672;28;20120;-87
2022/04/07 06:36:15;;;;;;;12.70;6.43;;;;;;;9.86;68.62;100056.66;4935986;28;20511;-88
2022/04/07 06:38:41;;;;;;;9.23;6.28;;;;;;;10.22;66.28;100033.91;4959224;28;20054;-87
2022/04/07 06:41:11;;;;;;;12.82;6.10;;;;;;;10.65;64.25;100026.31;4987045;28;20109;-88
2022/04/07 06:43:38;;;;;;;15.65;6.10;;;;;;;10.63;64.02;100063.31;4981225;28;20072;-85
2022/04/07 06:46:04;;;;;;;9.48;4.93;;;;;;;10.18;64.59;100060.25;4979900;28;20034;-88
2022/04/07 06:48:31;;;;;;;9.23;5.72;;;;;;;10.04;65.96;100047.56;4989386;28;20065;-87
2022/04/07 06:50:58;;;;;;;10.25;6.03;;;;;;;10.19;65.55;100043.16;4971660;28;20034;-86
2022/04/07 06:53:24;;;;;;;12.70;5.60;;;;;;;10.23;65.05;100041.81;4984813;28;20029;-86
2022/04/07 06:55:51;;;;;;;13.13;5.68;;;;;;;10.18;65.10;100048.69;4970688;28;20039;-85
2022/04/07 06:58:17;;;;;;;10.35;5.68;;;;;;;10.18;64.53;100033.41;4973864;28;20121;-86
2022/04/07 07:00:45;;;;;;;;;;;;;;;10.00;65.74;100076.63;4947007;28;20058;-87
2022/04/07 07:03:15;;;;;;;10.32;6.13;;;;;;;9.70;66.65;100072.81;4973810;28;19918;-87
2022/04/07 07:05:42;;;;;;;15.45;6.75;;;;;;;9.78;65.95;100053.16;4990075;28;20049;-88
2022/04/07 07:08:16;;;;;;;14.40;6.53;;;;;;;10.07;64.37;100060.66;4950995;28;20049;-88
2022/04/07 07:10:43;;;;;;;14.40;7.30;;;;;;;9.69;65.27;100071.97;4945021;28;20027;-88
2022/04/07 07:13:11;;;;;;;12.13;6.70;;;;;;;9.73;65.05;100089.41;4970361;28;20031;-88
2022/04/07 07:15:40;;;;;;;14.73;7.40;;;;;;;9.77;64.88;100095.28;4957548;28;20534;-88
2022/04/07 07:18:06;;;;;;;16.30;8.27;;;;;;;9.72;64.92;100081.53;4971415;28;20059;-89
2022/04/07 07:20:33;;;;;;;16.73;7.88;;;;;;;9.86;64.52;100088.88;4968065;28;20109;-87
2022/04/07 07:23:00;;;;;;;17.35;6.97;;;;;;;9.58;65.70;100084.91;4992662;28;20473;-88
2022/04/07 07:25:31;;;;;;;16.30;8.23;;;;;;;9.35;66.80;100080.19;4965442;28;20109;-89
2022/04/07 07:27:57;;;;;;;12.57;7.43;;;;;;;9.18;67.86;100089.25;4969291;28;20050;-88
2022/04/07 07:30:22;;;;;;;;;;;;;;;9.19;68.02;100091.75;4972207;28;20050;-90
2022/04/07 07:32:48;;;;;;;14.88;7.80;;;;;;;8.57;69.92;100062.63;4992211;28;19923;-88
2022/04/07 07:35:20;;;;;;;19.63;8.23;;;;;;;8.64;69.89;100063.66;4984625;28;20482;-86
2022/04/07 07:37:52;;;;;;;15.75;8.13;;;;;;;8.61;70.46;100069.31;4970424;28;20038;-86
2022/04/07 07:40:23;;;;;;;18.58;8.35;;;;;;;8.71;69.80;100033.50;4988563;28;20065;-86
2022/04/07 07:42:49;;;;;;;15.55;7.65;;;;;;;8.62;70.05;100020.09;5009893;28;20034;-86
2022/04/07 07:45:15;;;;;;;18.60;8.32;;;;;;;8.88;69.08;100008.44;4992371;28;20442;-87
2022/04/07 07:47:41;;;;;;;12.05;8.07;;;;;;;9.03;69.05;100017.47;4992068;28;20030;-84
2022/04/07 07:50:09;;;;;;;19.65;8.07;;;;;;;9.06;68.46;100022.53;5007686;28;20402;-87
2022/04/07 07:52:37;;;;;;;13.65;7.93;;;;;;;9.03;68.48;100005.91;5015220;28;20076;-86
2022/04/07 07:55:03;;;;;;;14.82;7.07;;;;;;;9.09;68.26;100010.63;4975501;28;20069;-90
2022/04/07 07:57:30;;;;;;;15.75;7.80;;;;;;;9.08;68.56;99993.69;4959971;28;20348;-85
2022/04/07 07:59:59;;;;;;;20.17;8.82;;;;;;;9.31;67.99;100003.72;4980792;28;20137;-92
2022/04/07 08:02:26;;;;;;;15.50;9.05;;;;;;;9.03;67.63;99969.22;4975019;28;20109;-90
2022/04/07 08:04:52;;;;;;;19.80;9.88;;;;;;;9.01;67.30;99959.66;4988035;28;20439;-90
2022/04/07 08:07:18;;;;;;;20.33;10.80;;;;;;;9.24;66.24;99954.44;4991980;28;20038;-88
2022/04/07 08:09:43;;;;;;;16.50;9.52;;;;;;;9.03;66.73;99942.41;4989430;28;20037;-89
2022/04/07 08:12:09;;;;;;;21.88;9.88;;;;;;;8.84;67.76;99930.16;4993407;28;20140;-87
2022/04/07 08:14:35;;;;;;;18.83;9.02;;;;;;;8.95;67.11;99947.78;4972451;28;20525;-90
2022/04/07 08:17:05;;;;;;;21.02;9.10;;;;;;;8.81;68.03;99943.09;4977987;28;20049;-89
2022/04/07 08:19:31;;;;;;;20.08;10.40;;;;;;;9.01;67.02;99922.97;4962666;28;20056;-90
2022/04/07 08:21:58;;;;;;;19.58;9.90;;;;;;;9.00;67.81;99945.41;4978278;28;20034;-90
2022/04/07 08:24:23;;;;;;;20.23;9.57;;;;;;;9.52;66.23;99930.75;4969879;28;20034;-88
2022/04/07 08:26:49;;;;;;;18.05;9.73;;;;;;;9.87;64.15;99901.78;4983489;28;20082;-89
2022/04/07 08:29:16;;;;;;;13.55;7.75;;;;;;;9.24;64.99;99890.06;4979643;28;20184;-89
2022/04/07 08:31:42;;;;;;;16.60;6.93;;;;;;;8.73;66.85;99881.41;4977093;28;20534;-89
2022/04/07 08:34:09;;;;;;;17.70;8.80;;;;;;;8.79;66.72;99886.13;4981538;28;20037;-86
2022/04/07 08:36:35;;;;;;;15.77;7.97;;;;;;;8.76;67.03;99898.03;4972211;28;20060;-85
2022/04/07 08:39:02;;;;;;;15.52;7.82;;;;;;;8.44;68.17;99882.75;5007751;28;20135;-86
2022/04/07 08:41:31;;;;;;;13.00;7.93;;;;;;;8.68;67.87;99889.97;5012506;28;20049;-87
2022/04/07 08:43:58;;;;;;;12.63;7.13;;;;;;;8.87;67.04;99862.84;4978207;28;20049;-86
2022/04/07 08:46:24;;;;;;;14.93;8.00;;;;;;;8.99;66.69;99859.78;4979889;28;20030;-88
2022/04/07 08:48:57;;;;;;;13.38;7.57;;;;;;;9.12;66.19;99843.19;4994326;28;20073;-85
2022/04/07 08:51:27;;;;;;;15.63;7.68;;;;;;;9.44;64.74;99844.94;4997838;28;20034;-92
2022/04/07 08:53:54;;;;;;;19.35;7.60;;;;;;;9.39;64.61;99824.00;4993383;28;20096;-93
2022/04/07 08:56:23;;;;;;;12.57;6.78;;;;;;;9.33;64.70;99786.28;5001342;28;20195;-93
2022/04/07 08:58:50;;;;;;;13.98;6.90;;;;;;;9.50;63.65;99830.81;4981352;28;20046;-94
2022/04/07 09:01:15;;;;;;;;;;;;;;;8.95;65.82;99837.03;5000048;28;20036;-92
2022/04/07 09:03:43;;;;;;;13.95;7.57;;;;;;;9.11;65.00;99806.63;4969927;28;19913;-92
2022/04/07 09:06:10;;;;;;;13.07;7.20;;;;;;;9.05;65.68;99819.72;4966186;28;20042;-94
2022/04/07 09:08:39;;;;;;;11.60;6.70;;;;;;;8.87;65.92;99797.66;4982251;28;20030;-90
2022/04/07 09:11:11;;;;;;;13.25;7.57;;;;;;;8.86;65.95;99790.63;4978488;28;20041;-89
2022/04/07 09:13:40;;;;;;;19.55;5.90;;;;;;;8.78;66.38;99799.53;4973564;28;20049;-84
2022/04/07 09:16:12;;;;;;;15.23;7.20;;;;;;;8.85;66.52;99794.31;4978265;28;20069;-90
2022/04/07 09:18:48;;;;;;;17.30;7.78;;;;;;;8.90;66.19;99775.03;4960023;28;20051;-93
2022/04/07 09:21:18;;;;;;;11.90;7.45;;;;;;;9.08;65.52;99768.47;4956190;28;20066;-91
2022/04/07 09:24:00;;;;;;;17.55;8.38;;;;;;;9.55;64.70;99785.50;4993869;28;20045;-84
2022/04/07 09:26:28;;;;;;;14.48;7.75;;;;;;;9.31;64.90;99746.22;5004203;28;20038;-86
2022/04/07 09:29:00;;;;;;;13.30;7.70;;;;;;;9.43;64.76;99758.22;5008675;28;20067;-87
2022/04/07 09:31:27;;;;;;;18.40;8.73;;;;;;;9.29;65.54;99764.31;4978539;28;20074;-86
2022/04/07 09:33:55;;;;;;;20.45;8.80;;;;;;;9.16;65.80;99774.78;4993810;28;20058;-86
2022/04/07 09:36:22;;;;;;;13.90;8.65;;;;;;;9.45;65.50;99780.34;4992130;28;20030;-85
2022/04/07 09:38:57;;;;;;;16.83;9.05;;;;;;;9.29;65.22;99765.19;4975152;28;20022;-83
2022/04/07 09:41:27;;;;;;;16.52;8.57;;;;;;;9.02;66.02;99768.31;4986439;28;20038;-82
2022/04/07 09:44:01;;;;;;;14.80;9.38;;;;;;;8.87;66.98;99739.53;4982983;28;20100;-86
2022/04/07 09:46:37;;;;;;;15.30;8.02;;;;;;;8.88;67.65;99738.50;4988609;28;20035;-83
2022/04/07 09:49:06;;;;;;;15.18;8.85;;;;;;;8.63;68.54;99737.72;4999273;28;20042;-82
2022/04/07 09:51:46;;;;;;;17.35;10.18;;;;;;;8.73;68.45;99710.75;5014119;28;20422;-83
2022/04/07 09:54:14;;;;;;;22.63;10.10;;;;;;;8.85;67.80;99725.47;4966760;28;20045;-84
2022/04/07 09:56:40;;;;;;;18.48;9.82;;;;;;;8.50;69.16;99720.50;4991645;28;20055;-86
2022/04/07 09:59:06;;;;;;;17.20;8.40;;;;;;;8.23;70.40;99719.84;4964487;28;20526;-86
2022/04/07 10:01:33;;;;;;;20.02;9.77;;;;;;;8.21;70.44;99714.66;4971838;28;20439;-84
2022/04/07 10:03:59;;;;;;;20.38;9.32;;;;;;;8.15;71.43;99701.13;4992587;28;20491;-84
2022/04/07 10:06:25;;;;;;;13.88;9.55;;;;;;;8.03;72.80;99690.75;4952641;28;20042;-84
2022/04/07 10:08:51;;;;;;;18.30;10.15;;;;;;;8.13;72.57;99677.19;4968946;28;20479;-85
2022/04/07 10:11:17;;;;;;;17.73;9.18;;;;;;;8.00;73.21;99675.03;4991258;28;20053;-84
2022/04/07 10:13:44;;;;;;;21.10;10.68;;;;;;;8.22;73.05;99653.94;4985715;28;20049;-84
2022/04/07 10:16:10;;;;;;;16.98;10.13;;;;;;;8.29;73.60;99643.34;4985720;28;20058;-81
2022/04/07 10:18:40;;;;;;;15.17;8.83;;;;;;;8.09;72.80;99630.34;4976346;28;20176;-84
2022/04/07 10:21:05;;;;;;;19.13;8.32;;;;;;;7.98;73.51;99626.19;4966320;28;20305;-85
2022/04/07 10:24:03;;;;;;;18.73;8.93;;;;;;;8.24;73.08;99623.31;4972205;28;20332;-84
2022/04/07 10:26:28;;;;;;;18.58;7.22;;;;;;;8.23;72.76;99604.72;4989006;28;20367;-85
2022/04/07 10:28:57;;;;;;;22.13;8.13;;;;;;;8.03;73.59;99607.78;4964533;28;20030;-86
2022/04/07 10:31:25;;;;;;;19.23;8.73;;;;;;;8.15;74.12;99600.22;4975163;28;20049;-83
2022/04/07 10:33:59;;;;;;;24.58;9.15;;;;;;;8.03;74.20;99591.72;4964621;28;20114;-84
2022/04/07 10:36:36;;;;;;;16.48;9.35;;;;;;;8.38;73.53;99581.59;4989004;28;20056;-85
2022/04/07 10:39:09;;;;;;;19.58;9.82;;;;;;;8.40;73.15;99581.41;4989803;28;20045;-85
2022/04/07 10:41:36;;;;;;;20.10;8.88;;;;;;;8.02;73.48;99555.22;4988799;28;20060;-85
2022/04/07 10:44:11;;;;;;;19.07;9.87;;;;;;;8.03;73.59;99564.13;4999242;28;20375;-85
2022/04/07 10:46:36;;;;;;;23.10;12.05;;;;;;;8.36;74.12;99578.25;4996866;28;20526;-85
2022/04/07 10:49:11;;;;;;;12.93;8.10;;;;;;;8.20;73.58;99571.09;4976701;28;20037;-84
2022/04/07 10:51:43;;;;;;;17.13;10.57;;;;;;;8.38;73.17;99589.63;4994646;28;20125;-86
2022/04/07 10:54:09;;;;;;;17.17;9.65;;;;;;;8.90;71.79;99604.31;4977813;28;20390;-84
2022/04/07 10:56:34;;;;;;;;;;;;;;;9.10;71.70;99610.06;4993215;28;20034;-83
2022/04/07 10:59:19;;;;;;;;;;;;;;;8.91;71.51;99614.03;5005843;28;19948;-84
2022/04/07 11:01:47;;;;;;;19.05;9.60;;;;;;;8.61;72.26;99605.78;4993034;28;19922;-86
2022/04/07 11:04:21;;;;;;;21.83;10.63;;;;;;;8.61;72.88;99616.50;4987238;28;20050;-85
2022/04/07 11:07:05;;;;;;;23.75;11.73;;;;;;;8.21;73.90;99606.72;4986512;28;20042;-85
2022/04/07 11:10:00;;;;;;;17.50;11.18;;;;;;;8.29;73.80;99600.50;4987964;28;20034;-83
2022/04/07 11:12:31;;;;;;;17.23;10.13;;;;;;;8.00;74.25;99594.72;4995974;28;20033;-81
2022/04/07 11:15:03;;;;;;;16.70;10.25;;;;;;;7.94;74.37;99591.91;4994965;28;20233;-82
2022/04/07 11:17:37;;;;;;;27.30;10.13;;;;;;;7.73;74.98;99581.75;4990075;28;20042;-84
2022/04/07 11:20:04;;;;;;;20.08;12.15;;;;;;;7.78;75.40;99564.16;4985393;28;20030;-85
2022/04/07 11:22:49;;;;;;;17.90;11.02;;;;;;;7.83;75.53;99569.00;4990172;28;20074;-87
2022/04/07 11:25:21;;;;;;;22.63;12.38;;;;;;;7.87;76.11;99542.75;4989582;28;20279;-86
2022/04/07 11:28:14;;;;;;;21.70;11.35;;;;;;;7.81;77.00;99522.84;4998086;28;20035;-86
2022/04/07 11:30:49;;;;;;;19.30;12.32;;;;;;;7.72;77.83;99530.03;4982092;28;20046;-88
2022/04/07 11:33:25;;;;;;;21.98;12.45;;;;;;;7.79;77.78;99506.13;4991226;28;20045;-86